sensor_id;sensor_type;location;lat;lon;timestamp;pressure;altitude;pressure_sealevel;temperature;humidity
56719;BME280;42597;40.636;0.278;2023-01-25T00:00:38;98121.53;;;8.18;51.38
56719;BME280;42597;40.636;0.278;2023-01-25T00:03:03;98123.94;;;7.06;53.75
56719;BME280;42597;40.636;0.278;2023-01-25T00:05:29;98128.53;;;6.91;54.29
56719;BME280;42597;40.636;0.278;2023-01-25T00:07:54;98119.25;;;7.89;55.10
56719;BME280;42597;40.636;0.278;2023-01-25T00:10:20;98133.91;;;6.91;54.57
56719;BME280;42597;40.636;0.278;2023-01-25T00:12:45;98125.81;;;7.19;55.56
56719;BME280;42597;40.636;0.278;2023-01-25T00:15:11;98114.72;;;7.98;56.57
56719;BME280;42597;40.636;0.278;2023-01-25T00:17:37;98123.34;;;7.09;54.71
56719;BME280;42597;40.636;0.278;2023-01-25T00:20:02;98115.16;;;8.14;56.39
56719;BME280;42597;40.636;0.278;2023-01-25T00:22:29;98111.22;;;8.56;54.53
56719;BME280;42597;40.636;0.278;2023-01-25T00:24:54;98112.34;;;7.97;52.87
56719;BME280;42597;40.636;0.278;2023-01-25T00:27:20;98117.63;;;8.47;53.81
56719;BME280;42597;40.636;0.278;2023-01-25T00:29:45;98117.34;;;7.39;53.46
56719;BME280;42597;40.636;0.278;2023-01-25T00:34:47;98108.81;;;6.96;52.07
56719;BME280;42597;40.636;0.278;2023-01-25T00:39:46;98104.19;;;8.78;54.38
56719;BME280;42597;40.636;0.278;2023-01-25T00:42:16;98099.09;;;8.45;53.57
56719;BME280;42597;40.636;0.278;2023-01-25T00:44:42;98118.81;;;7.96;51.98
56719;BME280;42597;40.636;0.278;2023-01-25T00:47:09;98084.44;;;9.57;52.52
56719;BME280;42597;40.636;0.278;2023-01-25T00:49:35;98088.59;;;7.76;51.94
56719;BME280;42597;40.636;0.278;2023-01-25T00:52:02;98091.06;;;7.86;51.82
56719;BME280;42597;40.636;0.278;2023-01-25T00:54:27;98080.13;;;8.81;55.27
56719;BME280;42597;40.636;0.278;2023-01-25T00:56:53;98092.91;;;8.22;52.34
56719;BME280;42597;40.636;0.278;2023-01-25T00:59:21;98087.97;;;8.69;52.52
56719;BME280;42597;40.636;0.278;2023-01-25T01:01:47;98078.97;;;8.43;50.92
56719;BME280;42597;40.636;0.278;2023-01-25T01:04:13;98072.56;;;8.16;53.31
56719;BME280;42597;40.636;0.278;2023-01-25T01:06:39;98078.78;;;9.10;53.28
56719;BME280;42597;40.636;0.278;2023-01-25T01:09:06;98074.75;;;8.05;51.84
56719;BME280;42597;40.636;0.278;2023-01-25T01:11:32;98072.66;;;8.25;53.63
56719;BME280;42597;40.636;0.278;2023-01-25T01:13:58;98064.09;;;7.78;51.20
56719;BME280;42597;40.636;0.278;2023-01-25T01:16:25;98078.81;;;7.44;52.12
56719;BME280;42597;40.636;0.278;2023-01-25T01:18:51;98079.16;;;7.29;53.45
56719;BME280;42597;40.636;0.278;2023-01-25T01:21:17;98074.06;;;8.22;55.32
56719;BME280;42597;40.636;0.278;2023-01-25T01:23:43;98077.97;;;9.01;50.39
56719;BME280;42597;40.636;0.278;2023-01-25T01:26:12;98076.00;;;7.85;50.85
56719;BME280;42597;40.636;0.278;2023-01-25T01:28:39;98074.53;;;8.47;55.73
56719;BME280;42597;40.636;0.278;2023-01-25T01:31:07;98083.22;;;7.76;50.90
56719;BME280;42597;40.636;0.278;2023-01-25T01:33:33;98079.03;;;8.91;53.63
56719;BME280;42597;40.636;0.278;2023-01-25T01:36:08;98079.69;;;8.12;55.42
56719;BME280;42597;40.636;0.278;2023-01-25T01:38:34;98083.38;;;8.38;52.89
56719;BME280;42597;40.636;0.278;2023-01-25T01:40:59;98090.69;;;7.29;53.74
56719;BME280;42597;40.636;0.278;2023-01-25T01:43:25;98095.34;;;8.10;55.67
56719;BME280;42597;40.636;0.278;2023-01-25T01:45:57;98092.16;;;7.85;55.56
56719;BME280;42597;40.636;0.278;2023-01-25T01:48:33;98087.59;;;7.22;53.23
56719;BME280;42597;40.636;0.278;2023-01-25T01:53:29;98078.72;;;7.35;55.73
56719;BME280;42597;40.636;0.278;2023-01-25T01:56:04;98101.88;;;7.59;51.66
56719;BME280;42597;40.636;0.278;2023-01-25T01:58:34;98104.03;;;7.21;53.92
56719;BME280;42597;40.636;0.278;2023-01-25T02:01:01;98102.06;;;7.76;51.74
56719;BME280;42597;40.636;0.278;2023-01-25T02:03:27;98105.94;;;7.70;53.73
56719;BME280;42597;40.636;0.278;2023-01-25T02:06:03;98086.78;;;7.85;52.34
56719;BME280;42597;40.636;0.278;2023-01-25T02:08:32;98104.88;;;7.43;52.87
56719;BME280;42597;40.636;0.278;2023-01-25T02:11:02;98103.03;;;7.03;54.60
56719;BME280;42597;40.636;0.278;2023-01-25T02:13:28;98097.25;;;7.37;54.90
56719;BME280;42597;40.636;0.278;2023-01-25T02:15:55;98097.28;;;7.73;52.46
56719;BME280;42597;40.636;0.278;2023-01-25T02:18:22;98105.59;;;7.35;54.42
56719;BME280;42597;40.636;0.278;2023-01-25T02:20:53;98104.31;;;7.83;53.51
56719;BME280;42597;40.636;0.278;2023-01-25T02:25:45;98096.16;;;7.88;53.56
56719;BME280;42597;40.636;0.278;2023-01-25T02:28:22;98101.34;;;7.84;52.09
56719;BME280;42597;40.636;0.278;2023-01-25T02:30:48;98087.97;;;8.69;54.04
56719;BME280;42597;40.636;0.278;2023-01-25T02:33:14;98093.63;;;8.59;52.80
56719;BME280;42597;40.636;0.278;2023-01-25T02:35:44;98078.34;;;9.25;52.83
56719;BME280;42597;40.636;0.278;2023-01-25T02:38:13;98079.06;;;9.00;51.24
56719;BME280;42597;40.636;0.278;2023-01-25T02:40:54;98092.75;;;8.41;51.97
56719;BME280;42597;40.636;0.278;2023-01-25T02:43:22;98071.84;;;9.26;51.95
56719;BME280;42597;40.636;0.278;2023-01-25T02:45:54;98077.63;;;8.94;51.03
56719;BME280;42597;40.636;0.278;2023-01-25T02:48:22;98077.22;;;8.69;50.19
56719;BME280;42597;40.636;0.278;2023-01-25T02:50:48;98081.09;;;8.85;48.61
56719;BME280;42597;40.636;0.278;2023-01-25T02:53:14;98080.47;;;8.88;53.00
56719;BME280;42597;40.636;0.278;2023-01-25T02:55:39;98075.41;;;8.96;48.46
56719;BME280;42597;40.636;0.278;2023-01-25T02:58:05;98074.84;;;8.23;50.06
56719;BME280;42597;40.636;0.278;2023-01-25T03:00:31;98091.44;;;7.94;48.97
56719;BME280;42597;40.636;0.278;2023-01-25T03:02:57;98084.94;;;7.72;53.49
56719;BME280;42597;40.636;0.278;2023-01-25T03:05:22;98076.88;;;7.95;51.62
56719;BME280;42597;40.636;0.278;2023-01-25T03:07:48;98073.34;;;7.35;51.54
56719;BME280;42597;40.636;0.278;2023-01-25T03:10:14;98070.94;;;8.06;52.78
56719;BME280;42597;40.636;0.278;2023-01-25T03:12:40;98047.69;;;8.64;54.40
56719;BME280;42597;40.636;0.278;2023-01-25T03:15:06;98067.69;;;7.96;50.05
56719;BME280;42597;40.636;0.278;2023-01-25T03:17:32;98053.06;;;8.10;49.72
56719;BME280;42597;40.636;0.278;2023-01-25T03:19:58;98055.88;;;8.81;50.49
56719;BME280;42597;40.636;0.278;2023-01-25T03:22:23;98047.97;;;8.94;52.14
56719;BME280;42597;40.636;0.278;2023-01-25T03:24:49;98044.94;;;7.79;54.72
56719;BME280;42597;40.636;0.278;2023-01-25T03:27:15;98039.91;;;8.31;51.49
56719;BME280;42597;40.636;0.278;2023-01-25T03:29:43;98034.50;;;8.94;52.83
56719;BME280;42597;40.636;0.278;2023-01-25T03:32:09;98031.25;;;8.74;50.02
56719;BME280;42597;40.636;0.278;2023-01-25T03:34:34;98041.84;;;8.08;53.28
56719;BME280;42597;40.636;0.278;2023-01-25T03:37:00;98040.91;;;9.24;52.49
56719;BME280;42597;40.636;0.278;2023-01-25T03:39:27;98042.94;;;8.61;50.49
56719;BME280;42597;40.636;0.278;2023-01-25T03:41:53;98040.06;;;8.97;49.83
56719;BME280;42597;40.636;0.278;2023-01-25T03:44:18;98039.19;;;8.39;53.08
56719;BME280;42597;40.636;0.278;2023-01-25T03:46:44;98032.81;;;8.67;51.74
56719;BME280;42597;40.636;0.278;2023-01-25T03:49:10;98038.63;;;8.60;51.14
56719;BME280;42597;40.636;0.278;2023-01-25T03:51:36;98027.56;;;8.08;49.07
56719;BME280;42597;40.636;0.278;2023-01-25T03:54:02;98015.78;;;8.88;52.56
56719;BME280;42597;40.636;0.278;2023-01-25T03:56:27;98024.44;;;9.25;52.54
56719;BME280;42597;40.636;0.278;2023-01-25T03:58:53;98034.63;;;7.73;49.74
56719;BME280;42597;40.636;0.278;2023-01-25T04:01:18;98018.00;;;8.95;52.15
56719;BME280;42597;40.636;0.278;2023-01-25T04:03:44;98025.94;;;8.52;49.37
56719;BME280;42597;40.636;0.278;2023-01-25T04:06:10;98016.41;;;8.85;53.30
56719;BME280;42597;40.636;0.278;2023-01-25T04:08:35;98010.63;;;9.27;49.69
56719;BME280;42597;40.636;0.278;2023-01-25T04:11:07;98017.13;;;8.06;53.28
56719;BME280;42597;40.636;0.278;2023-01-25T04:13:33;98019.75;;;8.20;53.05
56719;BME280;42597;40.636;0.278;2023-01-25T04:16:06;98027.72;;;8.34;51.91
56719;BME280;42597;40.636;0.278;2023-01-25T04:18:32;98023.25;;;8.52;49.99
56719;BME280;42597;40.636;0.278;2023-01-25T04:20:57;98012.97;;;9.11;52.96
56719;BME280;42597;40.636;0.278;2023-01-25T04:23:24;98016.91;;;8.25;52.22
56719;BME280;42597;40.636;0.278;2023-01-25T04:26:00;98024.53;;;7.78;50.97
56719;BME280;42597;40.636;0.278;2023-01-25T04:28:26;98008.63;;;8.84;53.91
56719;BME280;42597;40.636;0.278;2023-01-25T04:30:53;98015.28;;;8.78;50.25
56719;BME280;42597;40.636;0.278;2023-01-25T04:33:20;98031.84;;;9.11;50.09
56719;BME280;42597;40.636;0.278;2023-01-25T04:35:46;98014.34;;;8.82;50.49
56719;BME280;42597;40.636;0.278;2023-01-25T04:38:12;98027.53;;;8.93;50.68
56719;BME280;42597;40.636;0.278;2023-01-25T04:40:37;98031.00;;;7.77;54.04
56719;BME280;42597;40.636;0.278;2023-01-25T04:43:03;98020.53;;;7.53;53.92
56719;BME280;42597;40.636;0.278;2023-01-25T04:45:31;98036.56;;;6.67;51.55
56719;BME280;42597;40.636;0.278;2023-01-25T04:48:02;98026.81;;;7.12;51.46
56719;BME280;42597;40.636;0.278;2023-01-25T04:50:28;98024.44;;;6.83;55.15
56719;BME280;42597;40.636;0.278;2023-01-25T04:52:53;98025.22;;;6.70;51.68
56719;BME280;42597;40.636;0.278;2023-01-25T04:55:19;98027.63;;;7.72;52.31
56719;BME280;42597;40.636;0.278;2023-01-25T04:57:48;98025.38;;;7.87;52.56
56719;BME280;42597;40.636;0.278;2023-01-25T05:00:14;98024.03;;;7.76;54.27
56719;BME280;42597;40.636;0.278;2023-01-25T05:02:41;98023.16;;;8.65;54.32
56719;BME280;42597;40.636;0.278;2023-01-25T05:05:07;98031.34;;;7.62;54.51
56719;BME280;42597;40.636;0.278;2023-01-25T05:07:33;98030.31;;;8.39;52.56
56719;BME280;42597;40.636;0.278;2023-01-25T05:09:58;98031.16;;;8.26;51.72
56719;BME280;42597;40.636;0.278;2023-01-25T05:12:24;98011.59;;;9.39;52.68
56719;BME280;42597;40.636;0.278;2023-01-25T05:14:50;98031.00;;;8.00;51.73
56719;BME280;42597;40.636;0.278;2023-01-25T05:17:15;98032.03;;;7.67;53.52
56719;BME280;42597;40.636;0.278;2023-01-25T05:19:41;98040.22;;;7.26;51.64
56719;BME280;42597;40.636;0.278;2023-01-25T05:22:12;98040.31;;;8.78;50.84
56719;BME280;42597;40.636;0.278;2023-01-25T05:24:38;98032.22;;;7.94;53.88
56719;BME280;42597;40.636;0.278;2023-01-25T05:27:08;98038.16;;;8.58;53.83
56719;BME280;42597;40.636;0.278;2023-01-25T05:29:35;98047.38;;;8.34;53.02
56719;BME280;42597;40.636;0.278;2023-01-25T05:32:18;98044.72;;;7.89;54.39
56719;BME280;42597;40.636;0.278;2023-01-25T05:34:44;98045.91;;;6.83;53.68
56719;BME280;42597;40.636;0.278;2023-01-25T05:37:12;98045.47;;;6.21;56.00
56719;BME280;42597;40.636;0.278;2023-01-25T05:39:38;98027.44;;;7.46;54.80
56719;BME280;42597;40.636;0.278;2023-01-25T05:42:10;98041.94;;;6.53;55.98
56719;BME280;42597;40.636;0.278;2023-01-25T05:44:36;98021.59;;;7.88;55.50
56719;BME280;42597;40.636;0.278;2023-01-25T05:47:02;98024.97;;;8.87;50.73
56719;BME280;42597;40.636;0.278;2023-01-25T05:49:27;98026.34;;;7.91;53.65
56719;BME280;42597;40.636;0.278;2023-01-25T05:51:53;98017.25;;;7.20;55.71
56719;BME280;42597;40.636;0.278;2023-01-25T05:54:19;98019.34;;;6.54;59.75
56719;BME280;42597;40.636;0.278;2023-01-25T05:56:45;98029.13;;;7.41;55.01
56719;BME280;42597;40.636;0.278;2023-01-25T05:59:11;98035.97;;;6.98;52.84
56719;BME280;42597;40.636;0.278;2023-01-25T06:01:38;98041.56;;;6.87;54.36
56719;BME280;42597;40.636;0.278;2023-01-25T06:04:04;98024.13;;;7.49;58.80
56719;BME280;42597;40.636;0.278;2023-01-25T06:06:30;98025.63;;;8.00;56.10
56719;BME280;42597;40.636;0.278;2023-01-25T06:08:55;98028.22;;;7.46;58.81
56719;BME280;42597;40.636;0.278;2023-01-25T06:11:23;98031.56;;;9.21;54.51
56719;BME280;42597;40.636;0.278;2023-01-25T06:13:49;98029.78;;;8.06;52.81
56719;BME280;42597;40.636;0.278;2023-01-25T06:16:16;98036.06;;;7.20;54.29
56719;BME280;42597;40.636;0.278;2023-01-25T06:18:43;98039.88;;;6.91;56.00
56719;BME280;42597;40.636;0.278;2023-01-25T06:21:09;98042.91;;;7.62;57.73
56719;BME280;42597;40.636;0.278;2023-01-25T06:23:35;98041.81;;;9.02;54.67
56719;BME280;42597;40.636;0.278;2023-01-25T06:26:07;98047.13;;;7.05;52.58
56719;BME280;42597;40.636;0.278;2023-01-25T06:28:34;98043.19;;;8.51;55.49
56719;BME280;42597;40.636;0.278;2023-01-25T06:31:17;98041.25;;;8.43;52.75
56719;BME280;42597;40.636;0.278;2023-01-25T06:33:47;98041.41;;;7.93;55.32
56719;BME280;42597;40.636;0.278;2023-01-25T06:36:16;98055.88;;;6.97;54.28
56719;BME280;42597;40.636;0.278;2023-01-25T06:38:43;98050.50;;;6.97;53.95
56719;BME280;42597;40.636;0.278;2023-01-25T06:41:12;98059.22;;;6.47;58.08
56719;BME280;42597;40.636;0.278;2023-01-25T06:43:37;98058.97;;;6.16;58.62
56719;BME280;42597;40.636;0.278;2023-01-25T06:46:05;98060.06;;;6.89;58.15
56719;BME280;42597;40.636;0.278;2023-01-25T06:48:32;98056.28;;;6.76;58.95
56719;BME280;42597;40.636;0.278;2023-01-25T06:51:03;98060.47;;;7.60;57.82
56719;BME280;42597;40.636;0.278;2023-01-25T06:53:31;98061.19;;;7.52;59.76
56719;BME280;42597;40.636;0.278;2023-01-25T06:56:02;98057.41;;;7.53;58.94
56719;BME280;42597;40.636;0.278;2023-01-25T06:58:29;98056.28;;;6.76;54.02
56719;BME280;42597;40.636;0.278;2023-01-25T07:01:00;98059.09;;;7.85;54.22
56719;BME280;42597;40.636;0.278;2023-01-25T07:03:27;98047.88;;;7.91;52.92
56719;BME280;42597;40.636;0.278;2023-01-25T07:06:03;98048.97;;;9.15;53.57
56719;BME280;42597;40.636;0.278;2023-01-25T07:08:30;98046.00;;;7.20;55.02
56719;BME280;42597;40.636;0.278;2023-01-25T07:11:01;98060.56;;;7.55;53.86
56719;BME280;42597;40.636;0.278;2023-01-25T07:13:28;98043.16;;;8.73;55.05
56719;BME280;42597;40.636;0.278;2023-01-25T07:16:14;98048.59;;;8.51;50.71
56719;BME280;42597;40.636;0.278;2023-01-25T07:18:40;98049.44;;;9.08;54.96
56719;BME280;42597;40.636;0.278;2023-01-25T07:21:09;98049.81;;;8.00;53.84
56719;BME280;42597;40.636;0.278;2023-01-25T07:23:36;98051.81;;;7.49;51.34
56719;BME280;42597;40.636;0.278;2023-01-25T07:26:16;98050.47;;;7.24;53.70
56719;BME280;42597;40.636;0.278;2023-01-25T07:28:44;98061.44;;;7.14;52.82
56719;BME280;42597;40.636;0.278;2023-01-25T07:31:09;98054.44;;;7.40;56.38
56719;BME280;42597;40.636;0.278;2023-01-25T07:33:35;98055.47;;;6.89;52.58
56719;BME280;42597;40.636;0.278;2023-01-25T07:36:03;98048.66;;;7.33;53.37
56719;BME280;42597;40.636;0.278;2023-01-25T07:38:29;98045.72;;;7.07;55.93
56719;BME280;42597;40.636;0.278;2023-01-25T07:40:55;98040.91;;;7.90;56.58
56719;BME280;42597;40.636;0.278;2023-01-25T07:43:22;98044.72;;;6.62;52.03
56719;BME280;42597;40.636;0.278;2023-01-25T07:45:47;98040.09;;;7.45;55.92
56719;BME280;42597;40.636;0.278;2023-01-25T07:48:14;98037.69;;;7.43;53.71
56719;BME280;42597;40.636;0.278;2023-01-25T07:50:41;98037.44;;;7.17;52.08
56719;BME280;42597;40.636;0.278;2023-01-25T07:53:07;98041.06;;;7.49;56.34
56719;BME280;42597;40.636;0.278;2023-01-25T07:55:33;98048.78;;;7.87;54.38
56719;BME280;42597;40.636;0.278;2023-01-25T07:57:59;98060.66;;;7.00;52.51
56719;BME280;42597;40.636;0.278;2023-01-25T08:00:25;98059.25;;;6.88;52.21
56719;BME280;42597;40.636;0.278;2023-01-25T08:02:52;98062.97;;;7.56;53.36
56719;BME280;42597;40.636;0.278;2023-01-25T08:05:18;98062.13;;;7.70;53.27
56719;BME280;42597;40.636;0.278;2023-01-25T08:07:44;98067.81;;;7.68;51.21
56719;BME280;42597;40.636;0.278;2023-01-25T08:10:10;98070.41;;;6.82;54.51
56719;BME280;42597;40.636;0.278;2023-01-25T08:12:36;98072.81;;;7.61;56.42
56719;BME280;42597;40.636;0.278;2023-01-25T08:15:02;98080.66;;;8.61;49.87
56719;BME280;42597;40.636;0.278;2023-01-25T08:17:28;98073.94;;;8.05;51.27
56719;BME280;42597;40.636;0.278;2023-01-25T08:19:58;98059.63;;;7.73;54.83
56719;BME280;42597;40.636;0.278;2023-01-25T08:22:24;98054.75;;;8.20;52.71
56719;BME280;42597;40.636;0.278;2023-01-25T08:24:51;98068.91;;;7.89;53.09
56719;BME280;42597;40.636;0.278;2023-01-25T08:27:16;98067.22;;;7.94;51.13
56719;BME280;42597;40.636;0.278;2023-01-25T08:29:42;98060.69;;;8.62;51.76
56719;BME280;42597;40.636;0.278;2023-01-25T08:32:08;98073.97;;;7.32;50.58
56719;BME280;42597;40.636;0.278;2023-01-25T08:34:34;98056.69;;;8.28;56.28
56719;BME280;42597;40.636;0.278;2023-01-25T08:37:00;98071.91;;;7.65;51.68
56719;BME280;42597;40.636;0.278;2023-01-25T08:39:25;98078.16;;;7.25;51.77
56719;BME280;42597;40.636;0.278;2023-01-25T08:41:51;98069.56;;;7.36;52.35
56719;BME280;42597;40.636;0.278;2023-01-25T08:44:17;98079.97;;;6.88;54.37
56719;BME280;42597;40.636;0.278;2023-01-25T08:46:49;98075.97;;;7.13;53.86
56719;BME280;42597;40.636;0.278;2023-01-25T08:49:14;98065.72;;;7.15;51.13
56719;BME280;42597;40.636;0.278;2023-01-25T08:51:41;98059.19;;;7.43;49.97
56719;BME280;42597;40.636;0.278;2023-01-25T08:54:09;98059.34;;;8.82;53.58
56719;BME280;42597;40.636;0.278;2023-01-25T08:56:37;98052.94;;;8.15;54.06
56719;BME280;42597;40.636;0.278;2023-01-25T08:59:03;98060.38;;;8.10;55.21
56719;BME280;42597;40.636;0.278;2023-01-25T09:01:30;98067.00;;;8.35;50.09
56719;BME280;42597;40.636;0.278;2023-01-25T09:03:56;98073.91;;;8.27;51.71
56719;BME280;42597;40.636;0.278;2023-01-25T09:06:22;98082.41;;;7.76;49.08
56719;BME280;42597;40.636;0.278;2023-01-25T09:08:48;98042.41;;;8.50;50.65
56719;BME280;42597;40.636;0.278;2023-01-25T09:11:17;98066.88;;;9.11;52.86
56719;BME280;42597;40.636;0.278;2023-01-25T09:13:43;98067.53;;;7.92;52.96
56719;BME280;42597;40.636;0.278;2023-01-25T09:16:14;98072.22;;;7.86;49.60
56719;BME280;42597;40.636;0.278;2023-01-25T09:18:41;98080.28;;;7.64;51.04
56719;BME280;42597;40.636;0.278;2023-01-25T09:21:11;98076.97;;;8.34;53.53
56719;BME280;42597;40.636;0.278;2023-01-25T09:23:37;98082.19;;;8.53;51.52
56719;BME280;42597;40.636;0.278;2023-01-25T09:26:04;98093.88;;;7.81;52.28
56719;BME280;42597;40.636;0.278;2023-01-25T09:28:31;98085.53;;;8.59;53.20
56719;BME280;42597;40.636;0.278;2023-01-25T09:30:59;98076.75;;;8.76;50.84
56719;BME280;42597;40.636;0.278;2023-01-25T09:33:31;98096.47;;;8.54;53.56
56719;BME280;42597;40.636;0.278;2023-01-25T09:35:58;98098.75;;;7.79;51.60
56719;BME280;42597;40.636;0.278;2023-01-25T09:38:23;98104.16;;;8.47;50.47
56719;BME280;42597;40.636;0.278;2023-01-25T09:41:44;98097.53;;;7.85;50.17
56719;BME280;42597;40.636;0.278;2023-01-25T09:46:44;98099.44;;;8.30;48.77
56719;BME280;42597;40.636;0.278;2023-01-25T09:54:50;98085.97;;;9.40;51.61
56719;BME280;42597;40.636;0.278;2023-01-25T09:57:32;98082.84;;;10.08;50.08
56719;BME280;42597;40.636;0.278;2023-01-25T10:00:02;98074.78;;;8.59;51.31
56719;BME280;42597;40.636;0.278;2023-01-25T10:02:38;98072.22;;;8.54;52.94
56719;BME280;42597;40.636;0.278;2023-01-25T10:05:14;98082.84;;;8.59;51.05
56719;BME280;42597;40.636;0.278;2023-01-25T10:08:05;98079.03;;;7.70;49.07
56719;BME280;42597;40.636;0.278;2023-01-25T10:10:41;98081.94;;;8.72;52.08
56719;BME280;42597;40.636;0.278;2023-01-25T10:13:11;98097.03;;;8.73;52.34
56719;BME280;42597;40.636;0.278;2023-01-25T10:15:50;98087.25;;;8.55;49.10
56719;BME280;42597;40.636;0.278;2023-01-25T10:21:11;98084.81;;;9.15;51.88
56719;BME280;42597;40.636;0.278;2023-01-25T10:26:26;98081.88;;;8.55;51.06
56719;BME280;42597;40.636;0.278;2023-01-25T10:29:16;98081.03;;;9.17;50.03
56719;BME280;42597;40.636;0.278;2023-01-25T10:31:52;98082.75;;;9.12;47.17
56719;BME280;42597;40.636;0.278;2023-01-25T10:34:24;98053.44;;;8.71;48.33
56719;BME280;42597;40.636;0.278;2023-01-25T10:36:55;98058.72;;;10.03;49.94
56719;BME280;42597;40.636;0.278;2023-01-25T10:39:21;98067.84;;;9.15;46.64
56719;BME280;42597;40.636;0.278;2023-01-25T10:41:58;98069.38;;;8.90;48.66
56719;BME280;42597;40.636;0.278;2023-01-25T10:44:25;98067.31;;;9.53;48.65
56719;BME280;42597;40.636;0.278;2023-01-25T10:47:30;98073.69;;;9.08;46.35
56719;BME280;42597;40.636;0.278;2023-01-25T10:49:58;98067.16;;;9.58;48.94
56719;BME280;42597;40.636;0.278;2023-01-25T10:52:25;98064.97;;;8.63;48.27
56719;BME280;42597;40.636;0.278;2023-01-25T10:57:33;98069.13;;;9.18;49.55
56719;BME280;42597;40.636;0.278;2023-01-25T11:00:04;98064.34;;;9.06;47.34
56719;BME280;42597;40.636;0.278;2023-01-25T11:05:23;98061.91;;;8.96;50.22
56719;BME280;42597;40.636;0.278;2023-01-25T11:07:49;98057.47;;;9.74;48.81
56719;BME280;42597;40.636;0.278;2023-01-25T11:10:35;98059.78;;;9.32;47.31
56719;BME280;42597;40.636;0.278;2023-01-25T11:15:49;98047.63;;;9.61;48.65
56719;BME280;42597;40.636;0.278;2023-01-25T11:18:23;98057.94;;;9.76;46.58
56719;BME280;42597;40.636;0.278;2023-01-25T11:21:12;98068.06;;;9.36;48.70
56719;BME280;42597;40.636;0.278;2023-01-25T11:26:21;98065.53;;;9.39;49.98
56719;BME280;42597;40.636;0.278;2023-01-25T11:28:47;98061.41;;;9.77;49.34
56719;BME280;42597;40.636;0.278;2023-01-25T11:31:20;98059.50;;;9.34;46.39
56719;BME280;42597;40.636;0.278;2023-01-25T11:33:46;98052.38;;;9.64;46.69
56719;BME280;42597;40.636;0.278;2023-01-25T11:36:23;98044.16;;;8.55;47.09
56719;BME280;42597;40.636;0.278;2023-01-25T11:58:05;97977.00;;;9.42;46.57
56719;BME280;42597;40.636;0.278;2023-01-25T12:22:59;97935.59;;;9.55;45.20
56719;BME280;42597;40.636;0.278;2023-01-25T12:25:36;97940.56;;;10.00;46.11
56719;BME280;42597;40.636;0.278;2023-01-25T12:30:52;97947.72;;;9.96;44.86
56719;BME280;42597;40.636;0.278;2023-01-25T12:33:56;97925.44;;;10.25;47.65
56719;BME280;42597;40.636;0.278;2023-01-25T12:36:31;97942.97;;;10.01;44.86
56719;BME280;42597;40.636;0.278;2023-01-25T12:39:04;97927.97;;;10.12;48.01
56719;BME280;42597;40.636;0.278;2023-01-25T12:41:40;97924.88;;;10.02;46.44
56719;BME280;42597;40.636;0.278;2023-01-25T12:44:39;97926.72;;;10.19;44.29
56719;BME280;42597;40.636;0.278;2023-01-25T12:47:13;97913.53;;;10.17;46.76
56719;BME280;42597;40.636;0.278;2023-01-25T12:50:02;97902.47;;;9.93;47.11
56719;BME280;42597;40.636;0.278;2023-01-25T12:52:33;97912.69;;;9.78;44.88
56719;BME280;42597;40.636;0.278;2023-01-25T12:55:01;97911.66;;;10.00;44.09
56719;BME280;42597;40.636;0.278;2023-01-25T13:03:38;97880.31;;;10.55;45.55
56719;BME280;42597;40.636;0.278;2023-01-25T13:12:14;97876.81;;;10.16;45.51
56719;BME280;42597;40.636;0.278;2023-01-25T13:14:40;97887.78;;;9.64;43.51
56719;BME280;42597;40.636;0.278;2023-01-25T13:17:29;97854.50;;;10.45;46.46
56719;BME280;42597;40.636;0.278;2023-01-25T13:23:39;97858.94;;;10.41;45.18
56719;BME280;42597;40.636;0.278;2023-01-25T13:26:36;97855.94;;;10.84;47.20
56719;BME280;42597;40.636;0.278;2023-01-25T13:29:03;97853.72;;;10.86;44.73
56719;BME280;42597;40.636;0.278;2023-01-25T13:42:17;97851.44;;;10.08;43.82
56719;BME280;42597;40.636;0.278;2023-01-25T13:44:54;97842.72;;;10.92;47.20
56719;BME280;42597;40.636;0.278;2023-01-25T13:47:28;97848.09;;;10.50;43.32
56719;BME280;42597;40.636;0.278;2023-01-25T13:52:40;97847.16;;;10.46;43.83
56719;BME280;42597;40.636;0.278;2023-01-25T13:55:20;97840.00;;;10.50;42.79
56719;BME280;42597;40.636;0.278;2023-01-25T13:57:45;97837.09;;;10.97;46.75
56719;BME280;42597;40.636;0.278;2023-01-25T14:00:15;97828.78;;;10.60;47.17
56719;BME280;42597;40.636;0.278;2023-01-25T14:02:43;97838.94;;;10.63;44.50
56719;BME280;42597;40.636;0.278;2023-01-25T14:05:20;97843.44;;;10.29;42.95
56719;BME280;42597;40.636;0.278;2023-01-25T14:07:49;97830.97;;;10.07;40.26
56719;BME280;42597;40.636;0.278;2023-01-25T14:10:33;97842.41;;;10.13;41.34
56719;BME280;42597;40.636;0.278;2023-01-25T14:12:59;97831.97;;;10.62;46.48
56719;BME280;42597;40.636;0.278;2023-01-25T14:15:28;97833.81;;;10.49;39.98
56719;BME280;42597;40.636;0.278;2023-01-25T14:18:16;97828.34;;;10.28;40.47
56719;BME280;42597;40.636;0.278;2023-01-25T14:20:47;97828.78;;;10.01;39.99
56719;BME280;42597;40.636;0.278;2023-01-25T14:23:21;97821.00;;;10.37;41.98
56719;BME280;42597;40.636;0.278;2023-01-25T14:25:47;97808.94;;;10.98;46.34
56719;BME280;42597;40.636;0.278;2023-01-25T14:28:13;97802.38;;;11.20;46.05
56719;BME280;42597;40.636;0.278;2023-01-25T14:30:40;97799.78;;;10.90;41.59
56719;BME280;42597;40.636;0.278;2023-01-25T14:33:29;97814.69;;;10.75;44.80
56719;BME280;42597;40.636;0.278;2023-01-25T14:36:05;97813.28;;;10.19;39.56
56719;BME280;42597;40.636;0.278;2023-01-25T14:38:33;97815.72;;;9.64;39.22
56719;BME280;42597;40.636;0.278;2023-01-25T14:41:23;97819.19;;;9.82;39.87
56719;BME280;42597;40.636;0.278;2023-01-25T14:43:55;97815.34;;;9.45;39.38
56719;BME280;42597;40.636;0.278;2023-01-25T14:49:16;97801.25;;;10.46;44.54
56719;BME280;42597;40.636;0.278;2023-01-25T14:54:28;97799.25;;;9.96;43.38
56719;BME280;42597;40.636;0.278;2023-01-25T14:57:01;97791.06;;;9.83;40.51
56719;BME280;42597;40.636;0.278;2023-01-25T15:05:28;97793.56;;;10.27;42.22
56719;BME280;42597;40.636;0.278;2023-01-25T15:10:36;97779.88;;;10.53;42.60
56719;BME280;42597;40.636;0.278;2023-01-25T15:15:47;97778.09;;;10.57;44.20
56719;BME280;42597;40.636;0.278;2023-01-25T15:21:12;97777.06;;;10.20;42.70
56719;BME280;42597;40.636;0.278;2023-01-25T15:23:40;97765.78;;;10.26;46.06
56719;BME280;42597;40.636;0.278;2023-01-25T15:26:19;97782.72;;;10.06;41.79
56719;BME280;42597;40.636;0.278;2023-01-25T15:28:46;97778.94;;;10.49;44.81